Time;durP1;ratioP1;P1;durP2;ratioP2;P2;SDS_P1;SDS_P2;PMS_P1;PMS_P2;Temp;Humidity;BMP_temperature;BMP_pressure;BME280_temperature;BME280_humidity;BME280_pressure;Samples;Min_cycle;Max_cycle;Signal;HPM_P1;HPM_P2
2022/07/08 00:00:35;;;;;;;7.30;6.50;;;;;;;24.46;60.02;101361.47;4991956;28;20124;-83
2022/07/08 00:03:02;;;;;;;10.50;6.93;;;;;;;24.05;60.18;101301.97;4988328;28;20065;-83
2022/07/08 00:05:29;;;;;;;11.95;6.72;;;;;;;24.62;60.09;101378.38;4988557;28;20054;-83
2022/07/08 00:07:56;;;;;;;8.02;6.60;;;;;;;24.28;59.86;101331.41;4988662;28;20133;-83
2022/07/08 00:10:23;;;;;;;9.02;7.13;;;;;;;23.48;59.88;101201.22;4988025;28;20101;-83
2022/07/08 00:12:49;;;;;;;7.63;6.93;;;;;;;23.64;59.80;101243.31;4988692;28;20077;-83
2022/07/08 00:15:16;;;;;;;8.82;7.40;;;;;;;24.48;59.51;101377.53;4990570;28;20067;-82
2022/07/08 00:17:43;;;;;;;7.22;5.90;;;;;;;24.33;59.53;101353.31;4991446;28;20101;-83
2022/07/08 00:20:10;;;;;;;6.35;5.55;;;;;;;24.04;58.02;101308.44;4988324;28;20090;-82
2022/07/08 00:22:37;;;;;;;7.35;5.10;;;;;;;24.50;57.56;101379.00;4988293;28;20352;-82
2022/07/08 00:25:04;;;;;;;8.82;5.60;;;;;;;24.49;56.88;101376.50;4987973;28;20051;-82
2022/07/08 00:27:31;;;;;;;7.22;4.40;;;;;;;24.08;56.73;101320.56;4988103;28;20050;-83
2022/07/08 00:29:57;;;;;;;5.35;4.22;;;;;;;24.56;55.69;101381.91;4988251;28;20116;-83
2022/07/08 00:32:24;;;;;;;8.10;4.57;;;;;;;24.48;55.61;101375.66;4987229;28;20391;-82
2022/07/08 00:34:51;;;;;;;6.30;4.93;;;;;;;24.46;56.19;101382.34;4987644;28;20512;-82
2022/07/08 00:37:18;;;;;;;5.00;4.50;;;;;;;24.37;55.78;101357.28;4987433;28;20062;-83
2022/07/08 00:39:45;;;;;;;9.10;4.57;;;;;;;24.51;55.92;101383.38;4979312;28;20058;-82
2022/07/08 00:42:11;;;;;;;5.68;4.57;;;;;;;24.07;55.85;101319.69;4967903;28;20047;-82
2022/07/08 00:44:38;;;;;;;5.93;4.82;;;;;;;24.32;55.85;101351.63;4968405;28;20074;-81
2022/07/08 00:47:05;;;;;;;8.73;5.90;;;;;;;24.45;56.04;101370.63;4968397;28;20144;-82
2022/07/08 00:49:31;;;;;;;6.60;5.53;;;;;;;24.45;56.63;101386.91;4967310;28;20105;-83
2022/07/08 00:51:59;;;;;;;6.88;6.20;;;;;;;24.46;56.98;101399.47;4968446;28;20100;-82
2022/07/08 00:54:26;;;;;;;8.88;5.82;;;;;;;24.23;56.73;101339.34;4985938;28;20086;-83
2022/07/08 00:56:54;;;;;;;9.00;6.15;;;;;;;24.02;56.82;101324.91;4987538;28;20560;-83
2022/07/08 00:59:21;;;;;;;6.10;5.60;;;;;;;23.76;57.09;101301.31;4987240;28;20482;-84
2022/07/08 01:01:48;;;;;;;7.57;5.32;;;;;;;23.54;57.75;101281.66;4992784;28;20083;-83
2022/07/08 01:04:15;;;;;;;7.45;5.47;;;;;;;23.46;57.68;101284.56;4990162;28;20140;-83
2022/07/08 01:06:42;;;;;;;8.07;5.28;;;;;;;24.17;57.37;101378.13;4990523;28;20520;-82
2022/07/08 01:09:10;;;;;;;6.88;4.93;;;;;;;23.50;56.72;101272.28;4990393;28;20081;-81
2022/07/08 01:11:36;;;;;;;7.07;5.35;;;;;;;23.45;56.36;101258.53;4990994;28;20053;-82
2022/07/08 01:14:04;;;;;;;6.43;5.32;;;;;;;23.99;57.26;101360.59;5007829;28;20081;-82
2022/07/08 01:16:31;;;;;;;9.32;7.45;;;;;;;24.15;57.55;101370.19;5007708;28;20096;-83
2022/07/08 01:18:57;;;;;;;9.27;7.10;;;;;;;24.17;57.93;101378.13;4990256;28;20406;-82
2022/07/08 01:21:24;;;;;;;6.72;6.13;;;;;;;23.25;57.68;101245.78;5007731;28;20543;-81
2022/07/08 01:23:51;;;;;;;7.18;6.40;;;;;;;24.11;57.00;101371.66;5007985;28;20050;-82
2022/07/08 01:26:18;;;;;;;8.63;5.78;;;;;;;23.87;57.10;101340.56;5007816;28;20057;-83
2022/07/08 01:28:45;;;;;;;7.45;6.03;;;;;;;24.13;57.31;101398.56;4990303;28;20046;-82
2022/07/08 01:31:12;;;;;;;8.95;5.97;;;;;;;24.14;57.24;101394.84;5007424;28;20049;-81
2022/07/08 01:33:39;;;;;;;9.05;6.47;;;;;;;23.65;57.24;101327.13;4990174;28;20076;-82
2022/07/08 01:36:06;;;;;;;8.63;6.72;;;;;;;23.58;57.46;101330.88;4990377;28;20310;-83
2022/07/08 01:38:33;;;;;;;7.47;6.78;;;;;;;23.99;57.15;101397.72;4989986;28;20054;-84
2022/07/08 01:41:00;;;;;;;6.90;5.90;;;;;;;23.77;57.62;101378.09;4988158;28;20054;-83
2022/07/08 01:43:26;;;;;;;8.13;6.50;;;;;;;23.86;58.15;101407.50;4970277;28;20421;-83
2022/07/08 01:45:53;;;;;;;10.68;5.90;;;;;;;23.58;58.16;101369.66;4988224;28;20062;-82
2022/07/08 01:48:20;;;;;;;7.03;6.15;;;;;;;22.90;58.50;101269.34;4970385;28;20494;-82
2022/07/08 01:50:47;;;;;;;11.20;5.85;;;;;;;23.08;58.19;101298.59;4970633;28;20050;-81
2022/07/08 01:53:14;;;;;;;9.75;6.78;;;;;;;23.77;58.09;101391.63;4987587;28;20050;-82
2022/07/08 01:55:41;;;;;;;6.78;6.07;;;;;;;23.85;58.15;101413.13;4970816;28;20068;-82
2022/07/08 01:58:08;;;;;;;6.80;6.10;;;;;;;23.13;58.19;101308.84;4991601;28;20046;-83
2022/07/08 02:00:35;;;;;;;7.28;5.72;;;;;;;23.39;58.10;101348.75;4973559;28;20263;-82
2022/07/08 02:03:02;;;;;;;8.35;5.95;;;;;;;23.67;57.88;101410.97;4970772;28;20054;-83
2022/07/08 02:05:32;;;;;;;7.95;5.95;;;;;;;22.80;57.82;101266.19;4970562;28;20093;-83
2022/07/08 02:08:03;;;;;;;9.10;6.60;;;;;;;22.79;57.92;101265.38;4988108;28;20603;-82
2022/07/08 02:12:18;;;;;;;7.30;6.65;;;;;;;23.73;57.87;101426.44;4971194;28;20120;-83
2022/07/08 02:13:18;;;;;;;9.32;7.32;;;;;;;22.60;58.67;101268.81;4990062;28;20098;-82
2022/07/08 02:15:46;;;;;;;7.43;6.72;;;;;;;23.22;58.33;101376.16;4973881;28;20073;-83
2022/07/08 02:18:13;;;;;;;8.60;6.57;;;;;;;23.41;58.18;101390.03;4974144;28;20069;-83
2022/07/08 02:20:40;;;;;;;14.32;7.03;;;;;;;23.71;57.80;101433.91;4976646;28;20042;-82
2022/07/08 02:23:06;;;;;;;7.80;7.07;;;;;;;23.67;58.13;101438.91;4997794;28;20058;-83
2022/07/08 02:25:33;;;;;;;8.23;7.43;;;;;;;23.68;58.02;101450.56;4995786;28;20034;-84
2022/07/08 02:28:00;;;;;;;10.88;7.57;;;;;;;23.41;58.17;101417.13;4993622;28;20038;-80
2022/07/08 02:30:27;;;;;;;12.38;7.15;;;;;;;23.60;57.99;101459.72;4972596;28;20564;-82
2022/07/08 02:32:53;;;;;;;8.52;6.38;;;;;;;23.25;58.37;101421.84;4971697;28;20073;-82
2022/07/08 02:35:20;;;;;;;10.43;6.53;;;;;;;22.79;58.71;101354.69;4971340;28;20086;-82
2022/07/08 02:37:47;;;;;;;7.97;6.18;;;;;;;23.41;58.56;101447.75;4988767;28;20116;-82
2022/07/08 02:40:14;;;;;;;7.03;6.32;;;;;;;23.21;58.57;101428.69;4970877;28;20470;-83
2022/07/08 02:42:40;;;;;;;6.05;5.38;;;;;;;23.24;58.51;101431.00;4970900;28;20054;-82
2022/07/08 02:45:08;;;;;;;10.43;6.20;;;;;;;23.47;58.42;101467.78;4970841;28;20050;-82
2022/07/08 02:47:34;;;;;;;7.05;5.45;;;;;;;23.28;58.28;101444.97;4970683;28;20392;-82
2022/07/08 02:50:01;;;;;;;7.38;6.40;;;;;;;23.41;58.39;101452.34;4970391;28;20046;-82
2022/07/08 02:52:28;;;;;;;6.15;5.55;;;;;;;23.12;58.34;101423.63;4971822;28;20054;-82
2022/07/08 02:54:54;;;;;;;6.45;5.95;;;;;;;23.31;58.87;101470.84;4989957;28;20076;-82
2022/07/08 02:57:21;;;;;;;7.57;6.15;;;;;;;22.92;58.90;101405.34;4989841;28;20131;-82
2022/07/08 02:59:48;;;;;;;7.22;6.43;;;;;;;22.62;58.73;101356.00;4990215;28;20046;-82
2022/07/08 03:02:15;;;;;;;8.20;7.43;;;;;;;23.33;58.61;101479.59;4989673;28;20058;-83
2022/07/08 03:04:42;;;;;;;8.88;6.70;;;;;;;22.83;58.71;101398.41;4990378;28;20054;-82
2022/07/08 03:07:09;;;;;;;6.60;6.00;;;;;;;23.27;58.77;101474.97;5005729;28;20069;-82
2022/07/08 03:09:35;;;;;;;7.90;6.40;;;;;;;23.39;58.26;101481.50;4989951;28;20432;-82
2022/07/08 03:12:03;;;;;;;6.60;6.00;;;;;;;23.33;58.61;101490.44;4990959;28;20556;-81
2022/07/08 03:14:29;;;;;;;8.70;7.07;;;;;;;22.63;58.48;101373.94;4993709;28;20053;-82
2022/07/08 03:16:56;;;;;;;7.00;6.18;;;;;;;22.52;58.74;101372.59;4993388;28;20058;-80
2022/07/08 03:19:23;;;;;;;7.57;6.13;;;;;;;23.04;58.79;101473.38;4993160;28;20042;-81
2022/07/08 03:21:49;;;;;;;10.45;7.03;;;;;;;23.25;58.99;101507.66;4993072;28;20140;-84
2022/07/08 03:24:16;;;;;;;8.60;6.45;;;;;;;23.14;58.83;101498.22;4993321;28;20053;-82
2022/07/08 03:26:43;;;;;;;6.57;5.90;;;;;;;23.14;58.47;101487.38;4993189;28;20595;-82
2022/07/08 03:29:10;;;;;;;6.35;5.82;;;;;;;23.29;58.29;101500.81;4993200;28;20058;-82
2022/07/08 03:31:36;;;;;;;6.47;5.78;;;;;;;22.98;58.71;101449.78;4993242;28;20057;-81
2022/07/08 03:34:03;;;;;;;8.70;5.85;;;;;;;23.22;58.65;101492.66;4992764;28;20049;-81
2022/07/08 03:36:30;;;;;;;9.95;6.75;;;;;;;22.86;58.24;101432.38;4993138;28;20049;-82
2022/07/08 03:38:57;;;;;;;7.57;6.88;;;;;;;23.04;58.57;101470.66;4989744;28;20105;-83
2022/07/08 03:41:23;;;;;;;7.70;6.53;;;;;;;23.18;58.82;101499.50;4973519;28;20046;-84
2022/07/08 03:43:51;;;;;;;7.90;7.07;;;;;;;22.02;58.58;101314.13;4990679;28;20058;-83
2022/07/08 03:46:19;;;;;;;9.75;6.93;;;;;;;22.76;58.16;101403.78;4972933;28;20054;-82
2022/07/08 03:48:46;;;;;;;8.95;8.13;;;;;;;23.04;57.90;101454.41;4973191;28;20046;-83
2022/07/08 03:51:14;;;;;;;8.43;6.95;;;;;;;23.35;58.00;101515.44;4990504;28;20065;-84
2022/07/08 03:53:42;;;;;;;9.48;7.80;;;;;;;22.05;58.04;101313.72;4973286;28;20251;-83
2022/07/08 03:56:09;;;;;;;9.88;6.97;;;;;;;23.29;58.17;101521.66;4990048;28;20058;-83
2022/07/08 03:58:36;;;;;;;8.27;7.40;;;;;;;23.15;58.17;101505.31;4973195;28;20054;-81
2022/07/08 04:01:03;;;;;;;7.80;7.05;;;;;;;22.30;58.13;101376.38;4973066;28;20042;-82
2022/07/08 04:03:30;;;;;;;8.93;8.02;;;;;;;22.22;57.85;101353.00;4972814;28;20058;-81
2022/07/08 04:05:57;;;;;;;8.00;7.10;;;;;;;22.76;58.33;101457.91;4973179;28;20050;-82
2022/07/08 04:08:24;;;;;;;7.70;6.80;;;;;;;22.72;58.36;101445.81;4973221;28;20058;-82
2022/07/08 04:10:51;;;;;;;11.57;7.38;;;;;;;22.05;58.25;101336.19;4972906;28;20359;-81
2022/07/08 04:13:17;;;;;;;7.85;6.88;;;;;;;22.75;58.28;101456.25;4973835;28;20053;-83
2022/07/08 04:15:50;;;;;;;7.30;6.50;;;;;;;23.23;58.08;101513.28;4976796;28;20090;-83
2022/07/08 04:18:17;;;;;;;8.32;7.50;;;;;;;23.25;57.99;101516.66;4975520;28;20077;-82
2022/07/08 04:20:45;;;;;;;8.52;7.72;;;;;;;23.31;58.08;101525.84;4973804;28;20109;-82
2022/07/08 04:23:11;;;;;;;9.98;8.38;;;;;;;23.06;58.18;101489.41;4990001;28;20406;-82
2022/07/08 04:25:40;;;;;;;8.38;7.63;;;;;;;23.25;57.96;101526.63;4972900;28;20105;-82
2022/07/08 04:28:07;;;;;;;8.60;7.70;;;;;;;23.28;57.81;101503.72;4972369;28;20110;-82
2022/07/08 04:30:33;;;;;;;9.05;7.13;;;;;;;23.03;57.51;101475.25;4963476;28;20133;-82
2022/07/08 04:33:02;;;;;;;9.50;7.85;;;;;;;23.12;57.65;101500.28;4952188;28;20061;-82
2022/07/08 04:35:28;;;;;;;12.63;8.45;;;;;;;23.06;57.69;101494.81;4969211;28;20557;-82
2022/07/08 04:37:55;;;;;;;10.07;8.15;;;;;;;22.28;57.49;101362.19;4954725;28;20051;-83
2022/07/08 04:40:27;;;;;;;8.07;7.35;;;;;;;22.57;57.66;101404.47;5006797;28;20132;-82
2022/07/08 04:42:55;;;;;;;8.35;7.53;;;;;;;23.00;58.57;101496.44;4991417;28;20054;-81
2022/07/08 04:45:23;;;;;;;9.45;8.55;;;;;;;23.38;57.99;101547.56;5008529;28;20069;-82
2022/07/08 04:47:51;;;;;;;9.43;8.43;;;;;;;22.39;57.82;101384.16;4987924;28;20054;-82
2022/07/08 04:50:18;;;;;;;10.10;9.00;;;;;;;23.00;57.52;101469.38;4971802;28;20053;-83
2022/07/08 04:52:45;;;;;;;11.98;8.77;;;;;;;23.59;57.38;101557.47;4966364;28;20100;-83
2022/07/08 04:55:27;;;;;;;10.10;9.23;;;;;;;22.43;57.69;101375.63;4990695;28;20061;-81
2022/07/08 04:58:02;;;;;;;9.23;8.25;;;;;;;23.19;57.32;101501.19;5008274;28;20061;-81
2022/07/08 05:00:31;;;;;;;8.93;7.85;;;;;;;23.22;57.48;101492.66;4990581;28;20507;-82
2022/07/08 05:03:00;;;;;;;8.83;7.97;;;;;;;22.58;57.42;101411.56;4990623;28;20057;-82
2022/07/08 05:05:27;;;;;;;8.70;7.75;;;;;;;22.72;57.38;101402.53;4990261;28;20057;-82
2022/07/08 05:07:56;;;;;;;9.98;8.90;;;;;;;23.65;56.82;101549.41;4993969;28;20117;-82
2022/07/08 05:10:24;;;;;;;10.48;8.57;;;;;;;23.80;56.90;101570.16;4951937;28;20054;-81
2022/07/08 05:12:55;;;;;;;10.02;8.90;;;;;;;23.83;56.25;101553.47;4951726;28;20043;-82
2022/07/08 05:15:22;;;;;;;11.05;8.40;;;;;;;23.31;56.95;101487.91;4952766;28;20125;-83
2022/07/08 05:17:48;;;;;;;9.25;8.23;;;;;;;23.43;56.30;101493.63;4974663;28;20066;-81
2022/07/08 05:20:16;;;;;;;9.45;8.55;;;;;;;23.77;56.11;101548.88;4976500;28;20069;-82
2022/07/08 05:22:42;;;;;;;9.52;8.18;;;;;;;23.99;55.79;101580.25;4975685;28;20056;-83
2022/07/08 05:25:09;;;;;;;12.95;9.02;;;;;;;23.88;55.80;101570.84;4978244;28;20568;-82
2022/07/08 05:27:36;;;;;;;8.18;7.30;;;;;;;22.88;55.74;101395.13;4970939;28;20053;-82
2022/07/08 05:30:06;;;;;;;13.98;8.75;;;;;;;23.19;55.66;101447.00;4988370;28;20057;-83
2022/07/08 05:32:34;;;;;;;8.25;7.30;;;;;;;23.24;55.74;101463.50;4971227;28;20117;-80
2022/07/08 05:35:02;;;;;;;7.55;6.70;;;;;;;23.67;55.73;101519.41;4971392;28;20043;-81
2022/07/08 05:37:29;;;;;;;8.32;6.28;;;;;;;23.55;55.74;101504.72;4970980;28;20054;-82
2022/07/08 05:39:56;;;;;;;6.63;5.97;;;;;;;23.10;54.61;101388.63;4977951;28;20296;-82
2022/07/08 05:42:24;;;;;;;9.27;6.95;;;;;;;23.29;54.61;101418.72;4952497;28;20102;-83
2022/07/08 05:44:52;;;;;;;7.60;6.72;;;;;;;24.19;54.72;101580.34;4953438;28;20055;-82
2022/07/08 05:47:20;;;;;;;8.30;6.32;;;;;;;24.25;54.65;101578.72;4965144;28;20363;-82
2022/07/08 05:49:47;;;;;;;7.28;6.57;;;;;;;24.33;54.66;101600.22;4990217;28;20073;-83
2022/07/08 05:52:14;;;;;;;8.48;6.50;;;;;;;23.93;55.17;101543.09;4990152;28;20452;-82
2022/07/08 05:54:45;;;;;;;7.28;5.88;;;;;;;23.71;54.74;101481.84;4971569;28;20058;-83
2022/07/08 05:57:12;;;;;;;;;;;;;;;24.55;54.34;101602.84;4971457;28;20050;-81
2022/07/08 05:59:39;;;;;;;12.77;6.75;;;;;;;24.42;54.61;101598.16;4972585;28;19922;-82
2022/07/08 06:02:06;;;;;;;10.18;6.03;;;;;;;23.48;54.92;101445.06;4970695;28;20054;-82
2022/07/08 06:04:33;;;;;;;10.57;7.10;;;;;;;23.78;54.87;101493.59;4971913;28;20382;-82
2022/07/08 06:07:00;;;;;;;9.70;7.05;;;;;;;23.74;55.00;101476.91;4988416;28;20125;-83
2022/07/08 06:09:26;;;;;;;12.77;7.43;;;;;;;23.32;55.05;101402.88;4988505;28;20300;-80
2022/07/08 06:11:53;;;;;;;12.02;8.93;;;;;;;24.63;54.87;101602.63;4988049;28;20042;-82
2022/07/08 06:14:20;;;;;;;11.55;10.07;;;;;;;24.64;54.58;101588.03;4989173;28;20046;-80
2022/07/08 06:16:49;;;;;;;12.05;10.52;;;;;;;24.61;54.24;101572.97;4959822;28;20561;-81
2022/07/08 06:19:16;;;;;;;11.07;9.00;;;;;;;24.66;53.80;101558.78;4976042;28;20133;-82
2022/07/08 06:21:46;;;;;;;8.95;8.05;;;;;;;24.94;53.52;101602.91;4971643;28;20046;-83
2022/07/08 06:24:13;;;;;;;11.75;8.23;;;;;;;24.13;53.05;101447.38;4988047;28;20056;-82
2022/07/08 06:26:43;;;;;;;8.48;6.07;;;;;;;25.12;53.09;101609.59;4960255;28;20042;-82
2022/07/08 06:29:11;;;;;;;15.73;8.40;;;;;;;23.67;53.07;101373.84;4952042;28;20137;-81
2022/07/08 06:31:38;;;;;;;8.60;7.35;;;;;;;24.94;52.61;101581.16;4951615;28;20521;-80
2022/07/08 06:34:05;;;;;;;8.98;7.00;;;;;;;24.18;53.10;101455.78;4961333;28;20247;-82
2022/07/08 06:36:34;;;;;;;7.38;6.68;;;;;;;25.17;52.89;101607.13;4988983;28;20090;-82
2022/07/08 06:39:01;;;;;;;14.98;7.07;;;;;;;24.90;53.18;101579.94;4979617;28;20056;-80
2022/07/08 06:41:30;;;;;;;9.00;6.80;;;;;;;24.44;53.32;101503.81;4994383;28;20054;-80
2022/07/08 06:43:57;;;;;;;8.93;7.75;;;;;;;25.01;53.20;101602.09;4972836;28;20054;-81
2022/07/08 06:46:24;;;;;;;7.50;6.75;;;;;;;24.36;53.38;101475.00;4988614;28;20077;-82
2022/07/08 06:48:52;;;;;;;7.35;6.25;;;;;;;24.62;53.55;101516.81;4988485;28;20061;-81
2022/07/08 06:51:19;;;;;;;8.70;6.30;;;;;;;25.01;53.49;101564.06;4970088;28;20278;-81
2022/07/08 06:56:31;;;;;;;6.70;5.75;;;;;;;25.21;52.90;101570.34;5006460;28;20505;-81
2022/07/08 06:58:57;;;;;;;6.85;6.18;;;;;;;24.49;52.02;101431.63;5006936;28;20049;-81
2022/07/08 07:01:24;;;;;;;6.28;4.97;;;;;;;25.37;52.97;101594.38;4981082;28;20054;-80
2022/07/08 07:03:51;;;;;;;6.28;5.70;;;;;;;25.48;52.65;101614.63;4987559;28;20516;-81
2022/07/08 07:06:18;;;;;;;7.50;5.78;;;;;;;25.47;53.04;101623.00;4969893;28;20046;-81
2022/07/08 07:08:46;;;;;;;6.65;6.05;;;;;;;25.31;53.15;101605.25;4970253;28;20054;-81
2022/07/08 07:11:13;;;;;;;9.63;6.20;;;;;;;25.51;52.95;101618.81;4970101;28;20165;-82
2022/07/08 07:13:40;;;;;;;8.80;5.72;;;;;;;25.49;53.68;101618.22;4969673;28;20061;-81
2022/07/08 07:16:07;;;;;;;7.25;5.78;;;;;;;25.30;53.53;101579.94;4969573;28;20057;-81
2022/07/08 07:18:34;;;;;;;7.72;5.90;;;;;;;25.31;53.30;101587.03;4969387;28;20046;-80
2022/07/08 07:21:01;;;;;;;8.40;5.72;;;;;;;25.61;52.94;101605.63;4965386;28;20474;-82
2022/07/08 07:23:29;;;;;;;9.07;5.40;;;;;;;25.78;53.37;101634.03;4983288;28;20509;-82
2022/07/08 07:25:56;;;;;;;6.85;4.90;;;;;;;25.71;53.53;101606.03;4967409;28;20312;-82
2022/07/08 07:28:23;;;;;;;8.40;6.53;;;;;;;25.95;53.12;101636.34;4984311;28;20042;-82
2022/07/08 07:30:50;;;;;;;11.25;6.90;;;;;;;25.82;52.81;101603.69;4934101;28;20077;-81
2022/07/08 07:33:17;;;;;;;9.02;7.85;;;;;;;26.09;52.31;101627.06;4955606;28;20050;-82
2022/07/08 07:35:43;;;;;;;10.63;7.30;;;;;;;24.98;52.54;101455.81;4986215;28;20065;-82
2022/07/08 07:38:10;;;;;;;10.10;7.03;;;;;;;26.03;53.06;101627.13;4981694;28;20081;-82
2022/07/08 07:40:40;;;;;;;13.70;7.07;;;;;;;26.08;53.02;101639.00;4964987;28;20050;-81
2022/07/08 07:43:06;;;;;;;10.45;7.32;;;;;;;24.90;53.30;101438.72;4967303;28;20091;-78
2022/07/08 07:45:33;;;;;;;18.02;9.30;;;;;;;25.99;52.29;101611.19;4981273;28;20060;-82
2022/07/08 07:48:00;;;;;;;12.45;8.55;;;;;;;25.83;52.12;101584.47;5003468;28;20053;-81
2022/07/08 07:50:27;;;;;;;13.93;9.48;;;;;;;25.93;52.20;101601.19;4947970;28;20070;-82
2022/07/08 07:52:54;;;;;;;10.82;8.52;;;;;;;26.11;52.15;101624.97;4957371;28;20046;-81
2022/07/08 07:55:21;;;;;;;9.05;8.00;;;;;;;25.91;51.65;101594.28;5005028;28;20108;-82
2022/07/08 07:57:48;;;;;;;11.90;8.50;;;;;;;25.95;51.52;101576.50;5005684;28;20053;-82
2022/07/08 08:00:15;;;;;;;11.25;6.22;;;;;;;26.07;51.72;101591.09;4991572;28;20049;-82
2022/07/08 08:02:43;;;;;;;7.90;5.47;;;;;;;26.60;50.57;101647.19;5008935;28;20178;-82
2022/07/08 08:05:10;;;;;;;13.27;5.68;;;;;;;26.55;50.25;101636.13;5007456;28;20086;-82
2022/07/08 08:07:38;;;;;;;12.13;7.13;;;;;;;26.54;50.68;101650.81;4971940;28;20066;-81
2022/07/08 08:10:06;;;;;;;10.40;6.43;;;;;;;26.57;51.07;101634.03;4972077;28;20058;-82
2022/07/08 08:12:33;;;;;;;6.78;5.75;;;;;;;26.81;50.75;101646.03;4971764;28;20077;-82
2022/07/08 08:15:00;;;;;;;20.20;7.47;;;;;;;26.57;50.64;101596.72;4972055;28;20101;-83
2022/07/08 08:17:27;;;;;;;12.40;6.05;;;;;;;26.74;50.42;101624.28;4976319;28;20084;-82
2022/07/08 08:19:53;;;;;;;10.60;6.13;;;;;;;26.89;50.23;101648.50;5007702;28;20050;-83
2022/07/08 08:22:20;;;;;;;11.00;7.03;;;;;;;25.95;49.91;101475.84;5004155;28;20140;-82
2022/07/08 08:24:47;;;;;;;12.13;7.55;;;;;;;26.91;49.87;101610.97;4971193;28;20077;-82
2022/07/08 08:27:14;;;;;;;12.70;7.22;;;;;;;27.04;50.29;101640.84;4970554;28;20104;-82
2022/07/08 08:29:40;;;;;;;8.95;6.15;;;;;;;27.03;50.29;101622.81;4971083;28;20536;-82
2022/07/08 08:32:07;;;;;;;7.80;5.97;;;;;;;27.06;49.75;101606.06;4954240;28;20078;-82
2022/07/08 08:34:34;;;;;;;7.68;5.40;;;;;;;27.45;49.08;101658.59;4952019;28;20114;-80
2022/07/08 08:37:01;;;;;;;13.27;6.75;;;;;;;26.58;49.89;101526.75;4951725;28;20384;-81
2022/07/08 08:39:27;;;;;;;8.55;6.28;;;;;;;26.97;49.89;101596.47;4976147;28;20392;-82
2022/07/08 08:41:54;;;;;;;13.23;6.22;;;;;;;27.47;50.15;101656.47;4965863;28;20043;-81
2022/07/08 08:44:21;;;;;;;10.18;7.75;;;;;;;26.76;50.22;101526.03;4955723;28;20516;-82
2022/07/08 08:46:52;;;;;;;6.78;6.05;;;;;;;27.40;50.13;101614.78;4988175;28;20105;-82
2022/07/08 08:49:19;;;;;;;8.68;7.28;;;;;;;27.62;49.99;101642.50;4971308;28;20078;-82
2022/07/08 08:51:50;;;;;;;11.57;6.38;;;;;;;27.65;49.67;101630.31;4971560;28;20061;-82
2022/07/08 08:54:18;;;;;;;9.32;5.53;;;;;;;27.70;49.04;101623.09;4987166;28;20058;-81
2022/07/08 08:56:46;;;;;;;7.05;4.70;;;;;;;27.69;49.33;101656.88;4990551;28;20135;-80
2022/07/08 08:59:18;;;;;;;5.10;3.95;;;;;;;27.75;49.17;101663.34;5007607;28;20102;-82
2022/07/08 09:01:46;;;;;;;4.75;3.55;;;;;;;27.81;48.85;101667.06;4990464;28;20081;-82
2022/07/08 09:04:13;;;;;;;9.52;4.35;;;;;;;27.88;48.78;101638.69;4990273;28;20060;-84
2022/07/08 09:06:39;;;;;;;4.75;4.22;;;;;;;27.80;48.72;101632.66;4990593;28;20136;-82
2022/07/08 09:09:07;;;;;;;3.50;3.20;;;;;;;28.08;47.53;101651.25;5005406;28;20054;-83
2022/07/08 09:11:34;;;;;;;4.10;3.33;;;;;;;27.84;46.59;101604.75;4983932;28;20074;-83
2022/07/08 09:14:13;;;;;;;6.20;3.25;;;;;;;27.82;47.29;101597.81;4970960;28;20042;-80
2022/07/08 09:16:40;;;;;;;7.75;3.95;;;;;;;28.16;47.59;101636.47;4970492;28;20158;-82
2022/07/08 09:19:15;;;;;;;4.22;3.00;;;;;;;27.98;47.49;101601.84;4971836;28;20691;-82
2022/07/08 09:21:52;;;;;;;7.85;3.42;;;;;;;27.90;46.63;101587.44;4970682;28;20050;-82
2022/07/08 09:24:22;;;;;;;8.07;3.47;;;;;;;28.09;46.77;101655.69;4970786;28;20475;-82
2022/07/08 09:26:48;;;;;;;2.90;2.60;;;;;;;27.84;46.97;101632.03;4970868;28;20058;-82
2022/07/08 09:29:15;;;;;;;14.65;6.82;;;;;;;27.31;47.16;101558.91;5003329;28;20049;-81
2022/07/08 09:31:42;;;;;;;8.05;2.05;;;;;;;27.35;45.40;101542.91;4970881;28;20535;-82
2022/07/08 09:34:10;;;;;;;3.08;1.70;;;;;;;27.39;43.56;101542.25;4970677;28;20507;-82
2022/07/08 09:36:47;;;;;;;3.88;1.40;;;;;;;27.74;43.30;101574.38;4971321;28;20062;-80
2022/07/08 09:39:27;;;;;;;3.70;1.52;;;;;;;28.38;41.73;101650.50;4988114;28;20545;-80
2022/07/08 09:41:54;;;;;;;5.07;1.90;;;;;;;28.63;41.50;101615.72;4963990;28;20510;-81
2022/07/08 09:44:23;;;;;;;4.03;1.85;;;;;;;28.60;40.98;101588.88;4958619;28;20058;-80
2022/07/08 09:46:50;;;;;;;8.00;2.33;;;;;;;29.03;41.51;101631.53;4954189;28;20711;-81
2022/07/08 09:49:28;;;;;;;3.60;1.88;;;;;;;29.04;38.76;101633.19;4987826;28;20065;-79
2022/07/08 09:51:56;;;;;;;4.45;1.92;;;;;;;28.69;39.99;101554.69;4987756;28;20046;-82
2022/07/08 09:54:24;;;;;;;3.55;2.80;;;;;;;29.37;39.84;101634.53;4986491;28;20061;-80
2022/07/08 09:57:02;;;;;;;5.18;1.90;;;;;;;29.63;38.60;101635.97;5006521;28;20062;-80
2022/07/08 09:59:33;;;;;;;3.55;2.05;;;;;;;29.54;39.39;101634.66;4989098;28;20057;-81
2022/07/08 10:02:00;;;;;;;6.97;1.92;;;;;;;29.63;38.67;101594.13;5004633;28;20204;-81
2022/07/08 10:04:27;;;;;;;4.90;2.20;;;;;;;30.11;38.43;101645.81;4986933;28;20050;-83
2022/07/08 10:06:56;;;;;;;2.92;1.70;;;;;;;29.88;38.40;101616.59;4989835;28;20070;-83
2022/07/08 10:09:24;;;;;;;3.28;1.30;;;;;;;30.04;39.06;101621.31;5007082;28;20056;-82
2022/07/08 10:11:52;;;;;;;2.25;2.00;;;;;;;30.32;38.01;101633.44;5007214;28;20042;-82
2022/07/08 10:14:20;;;;;;;8.32;1.85;;;;;;;29.92;37.75;101579.44;5007984;28;20108;-83
2022/07/08 10:16:48;;;;;;;1.67;1.50;;;;;;;30.40;37.17;101613.84;4990091;28;20055;-83
2022/07/08 10:19:21;;;;;;;2.60;1.52;;;;;;;30.29;36.55;101572.81;4968277;28;20395;-82
2022/07/08 10:21:54;;;;;;;2.10;1.33;;;;;;;30.82;36.28;101648.31;4958357;28;20538;-82
2022/07/08 10:24:25;;;;;;;4.50;1.38;;;;;;;31.03;35.30;101646.81;4973559;28;20494;-82
2022/07/08 10:26:56;;;;;;;3.88;1.30;;;;;;;30.99;35.64;101634.66;4995155;28;20101;-82
2022/07/08 10:29:30;;;;;;;3.78;1.35;;;;;;;30.63;35.04;101562.75;4992793;28;20050;-82
2022/07/08 10:31:59;;;;;;;1.40;1.30;;;;;;;31.04;34.80;101593.63;4988208;28;20042;-81
2022/07/08 10:34:30;;;;;;;4.50;1.65;;;;;;;31.15;33.32;101539.78;4969293;28;20141;-83
2022/07/08 10:36:58;;;;;;;2.35;1.58;;;;;;;31.39;33.54;101576.06;4970066;28;20046;-82
2022/07/08 10:39:38;;;;;;;1.63;1.50;;;;;;;31.49;33.28;101581.72;4970309;28;20050;-80
2022/07/08 10:42:07;;;;;;;1.20;1.07;;;;;;;31.69;33.22;101631.41;4969733;28;20732;-80
2022/07/08 10:44:46;;;;;;;3.00;1.52;;;;;;;31.91;32.74;101638.84;4970030;28;20316;-80
2022/07/08 10:47:16;;;;;;;4.78;1.48;;;;;;;31.87;33.12;101643.16;4965891;28;20144;-80
2022/07/08 10:49:47;;;;;;;2.55;1.42;;;;;;;31.75;32.62;101584.81;4950755;28;20517;-79
2022/07/08 10:52:16;;;;;;;1.27;1.17;;;;;;;31.87;32.13;101582.75;4950367;28;20051;-81
2022/07/08 10:54:46;;;;;;;2.70;1.52;;;;;;;31.19;32.05;101443.03;4989014;28;20049;-83
2022/07/08 10:57:22;;;;;;;2.75;1.58;;;;;;;32.43;30.76;101641.16;4981118;28;20066;-83
2022/07/08 11:00:03;;;;;;;1.40;1.30;;;;;;;32.50;30.86;101639.06;4986697;28;20073;-82
2022/07/08 11:02:42;;;;;;;4.35;2.28;;;;;;;32.62;31.43;101638.06;4970157;28;20061;-83
2022/07/08 11:05:40;;;;;;;2.42;1.50;;;;;;;32.58;31.28;101632.28;4968080;28;20051;-82
2022/07/08 11:08:19;;;;;;;1.33;1.17;;;;;;;32.24;31.71;101572.00;4949911;28;20051;-83
2022/07/08 11:10:51;;;;;;;1.67;1.02;;;;;;;32.72;31.11;101621.66;4967135;28;20078;-81
2022/07/08 11:13:24;;;;;;;1.23;1.13;;;;;;;32.87;30.47;101630.09;4967631;28;20582;-80
2022/07/08 11:15:51;;;;;;;2.80;1.42;;;;;;;32.05;30.22;101472.63;4949916;28;20051;-81
2022/07/08 11:18:23;;;;;;;2.33;1.45;;;;;;;33.06;30.32;101638.81;4967745;28;20053;-81
2022/07/08 11:20:50;;;;;;;1.55;1.30;;;;;;;33.11;30.40;101607.75;4933884;28;20061;-81
2022/07/08 11:23:20;;;;;;;2.28;1.30;;;;;;;33.35;29.63;101581.53;4950110;28;20051;-82
2022/07/08 11:25:56;;;;;;;1.63;1.38;;;;;;;33.49;28.92;101614.06;4950945;28;20138;-82
2022/07/08 11:28:24;;;;;;;1.52;1.35;;;;;;;32.82;29.50;101473.31;4948847;28;20562;-82
2022/07/08 11:30:52;;;;;;;1.30;1.20;;;;;;;33.35;29.76;101554.00;4949195;28;20446;-81